Time;durP1;ratioP1;P1;durP2;ratioP2;P2;SDS_P1;SDS_P2;PMS_P1;PMS_P2;Temp;Humidity;BMP_temperature;BMP_pressure;BME280_temperature;BME280_humidity;BME280_pressure;Samples;Min_cycle;Max_cycle;Signal;HPM_P1;HPM_P2
2021/08/15 00:00:22;;;;;;;23.00;18.40;;;18.00;99.90;;;;;;2071275;28;20030;-67
2021/08/15 00:01:22;;;;;;;22.75;17.17;;;18.00;99.90;;;;;;2071101;28;20057;-67
2021/08/15 00:02:23;;;;;;;22.42;17.80;;;18.00;99.90;;;;;;2071302;28;20030;-67
2021/08/15 00:03:24;;;;;;;23.92;16.85;;;18.00;99.90;;;;;;2069837;28;20034;-67
2021/08/15 00:04:24;;;;;;;18.92;16.27;;;18.00;99.90;;;;;;2071127;28;20026;-67
2021/08/15 00:05:25;;;;;;;21.65;16.83;;;18.00;99.90;;;;;;2073511;28;20029;-67
2021/08/15 00:06:25;;;;;;;20.45;17.20;;;17.90;99.90;;;;;;2075879;28;20034;-67
2021/08/15 00:07:26;;;;;;;25.13;19.05;;;18.00;99.90;;;;;;2071240;28;20096;-67
2021/08/15 00:08:26;;;;;;;24.20;18.42;;;17.90;99.90;;;;;;2071382;28;20026;-67
2021/08/15 00:09:27;;;;;;;20.73;17.02;;;17.90;99.90;;;;;;2070694;28;20438;-67
2021/08/15 00:10:27;;;;;;;20.38;17.23;;;17.90;99.90;;;;;;2071192;28;20030;-67
2021/08/15 00:11:28;;;;;;;20.83;17.63;;;17.90;99.90;;;;;;2071238;28;20038;-67
2021/08/15 00:12:28;;;;;;;21.70;17.92;;;17.90;99.90;;;;;;2071338;28;20034;-67
2021/08/15 00:13:29;;;;;;;19.70;16.92;;;17.90;99.90;;;;;;2070567;28;20026;-67
2021/08/15 00:14:30;;;;;;;25.67;17.88;;;17.90;99.90;;;;;;2071230;28;20508;-67
2021/08/15 00:15:30;;;;;;;23.92;19.23;;;17.90;99.90;;;;;;2071362;28;20406;-67
2021/08/15 00:16:32;;;;;;;19.63;17.55;;;17.90;99.90;;;;;;2071301;28;20093;-67
2021/08/15 00:17:33;;;;;;;21.33;19.02;;;17.90;99.90;;;;;;2071104;28;20049;-67
2021/08/15 00:18:36;;;;;;;20.17;16.88;;;17.90;99.90;;;;;;2071408;28;20030;-67
2021/08/15 00:19:37;;;;;;;22.33;17.98;;;17.90;99.90;;;;;;2070989;28;20030;-67
2021/08/15 00:20:37;;;;;;;22.40;17.95;;;17.90;99.90;;;;;;2071439;28;20037;-67
2021/08/15 00:21:38;;;;;;;21.40;17.50;;;17.90;99.90;;;;;;2074841;28;20055;-67
2021/08/15 00:22:40;;;;;;;20.83;17.15;;;17.90;99.90;;;;;;2070902;28;20041;-67
2021/08/15 00:23:41;;;;;;;22.00;17.77;;;17.90;99.90;;;;;;2071020;28;20106;-67
2021/08/15 00:24:41;;;;;;;23.95;18.80;;;17.80;99.90;;;;;;2070930;28;20029;-67
2021/08/15 00:25:42;;;;;;;18.92;16.85;;;17.90;99.90;;;;;;2071009;28;20087;-67
2021/08/15 00:26:43;;;;;;;21.35;17.27;;;17.90;99.90;;;;;;2071281;28;20073;-67
2021/08/15 00:27:45;;;;;;;21.55;17.65;;;17.80;99.90;;;;;;2071233;28;20474;-67
2021/08/15 00:28:45;;;;;;;22.48;18.45;;;17.80;99.90;;;;;;2071267;28;20022;-67
2021/08/15 00:29:46;;;;;;;24.15;19.48;;;17.80;99.90;;;;;;2070845;28;20818;-67
2021/08/15 00:30:47;;;;;;;23.33;18.73;;;17.80;99.90;;;;;;2070991;28;20076;-67
2021/08/15 00:31:47;;;;;;;20.08;16.40;;;17.80;99.90;;;;;;2071078;28;20030;-67
2021/08/15 00:32:48;;;;;;;21.70;17.60;;;17.80;99.90;;;;;;2070712;28;20022;-67
2021/08/15 00:33:48;;;;;;;21.85;18.05;;;17.80;99.90;;;;;;2071045;28;20737;-67
2021/08/15 00:34:49;;;;;;;21.38;18.58;;;17.80;99.90;;;;;;2071294;28;20076;-67
2021/08/15 00:35:49;;;;;;;22.55;17.95;;;17.80;99.90;;;;;;2070824;28;20514;-67
2021/08/15 00:36:50;;;;;;;26.20;19.65;;;17.80;99.90;;;;;;2070926;28;20026;-67
2021/08/15 00:37:50;;;;;;;24.05;18.67;;;17.80;99.90;;;;;;2070986;28;20044;-67
2021/08/15 00:38:51;;;;;;;27.98;19.60;;;17.80;99.90;;;;;;2071290;28;20100;-67
2021/08/15 00:39:51;;;;;;;25.70;19.90;;;17.80;99.90;;;;;;2071011;28;20076;-67
2021/08/15 00:40:52;;;;;;;20.95;17.45;;;17.80;99.90;;;;;;2071118;28;20034;-67
2021/08/15 00:41:53;;;;;;;23.95;20.23;;;17.80;99.90;;;;;;2070659;28;20037;-67
2021/08/15 00:42:53;;;;;;;20.88;18.60;;;17.80;99.90;;;;;;2070728;28;20041;-67
2021/08/15 00:43:54;;;;;;;23.70;18.48;;;17.80;99.90;;;;;;2071194;28;20030;-67
2021/08/15 00:44:55;;;;;;;20.52;17.85;;;17.80;99.90;;;;;;2070697;28;20068;-67
2021/08/15 00:45:55;;;;;;;20.00;16.63;;;17.80;99.90;;;;;;2071314;28;20038;-67
2021/08/15 00:46:57;;;;;;;19.27;16.83;;;17.80;99.90;;;;;;2072277;28;20021;-67
2021/08/15 00:48:07;;;;;;;21.98;18.25;;;17.80;99.90;;;;;;2072892;28;20370;-67
2021/08/15 00:49:07;;;;;;;22.17;18.13;;;17.80;99.90;;;;;;2072421;28;20443;-67
2021/08/15 00:50:09;;;;;;;23.50;19.05;;;17.70;99.90;;;;;;2072287;28;20498;-67
2021/08/15 00:51:09;;;;;;;27.08;19.27;;;17.80;99.90;;;;;;2071329;28;20038;-67
2021/08/15 00:52:10;;;;;;;23.30;19.63;;;17.80;99.90;;;;;;2072633;28;20034;-67
2021/08/15 00:53:11;;;;;;;22.02;17.48;;;17.80;99.90;;;;;;2071961;28;20076;-67
2021/08/15 00:54:11;;;;;;;21.75;17.52;;;17.70;99.90;;;;;;2073953;28;20064;-67
2021/08/15 00:55:12;;;;;;;25.48;18.75;;;17.70;99.90;;;;;;2072137;28;20025;-67
2021/08/15 00:56:13;;;;;;;21.08;17.08;;;17.70;99.90;;;;;;2072664;28;20113;-67
2021/08/15 00:57:13;;;;;;;21.85;18.60;;;17.70;99.90;;;;;;2072716;28;20041;-67
2021/08/15 00:58:14;;;;;;;20.23;17.17;;;17.70;99.90;;;;;;2072619;28;20084;-67
2021/08/15 00:59:16;;;;;;;25.92;19.25;;;17.70;99.90;;;;;;2072260;28;20405;-67
2021/08/15 01:00:17;;;;;;;20.70;16.75;;;17.70;99.90;;;;;;2072403;28;20026;-67
2021/08/15 01:01:18;;;;;;;21.05;17.60;;;17.70;99.90;;;;;;2072470;28;20029;-67
2021/08/15 01:02:19;;;;;;;19.67;17.25;;;17.70;99.90;;;;;;2072393;28;20072;-67
2021/08/15 01:03:20;;;;;;;26.38;20.27;;;17.70;99.90;;;;;;2071789;28;20022;-68
2021/08/15 01:04:21;;;;;;;26.30;18.95;;;17.70;99.90;;;;;;2072228;28;20026;-67
2021/08/15 01:05:23;;;;;;;26.30;19.08;;;17.70;99.90;;;;;;2072191;28;20042;-67
2021/08/15 01:06:24;;;;;;;23.58;16.85;;;17.70;99.90;;;;;;2072424;28;20030;-67
2021/08/15 01:07:24;;;;;;;25.48;19.25;;;17.70;99.90;;;;;;2072279;28;20036;-67
2021/08/15 01:08:35;;;;;;;22.15;18.08;;;17.70;99.90;;;;;;2072528;28;20198;-68
2021/08/15 01:09:39;;;;;;;22.88;17.70;;;17.70;99.90;;;;;;2072516;28;20068;-67
2021/08/15 01:10:40;;;;;;;22.30;18.40;;;17.70;99.90;;;;;;2063952;28;20086;-67
2021/08/15 01:11:41;;;;;;;20.80;16.85;;;17.70;99.90;;;;;;2071845;28;20469;-67
2021/08/15 01:12:42;;;;;;;26.45;19.40;;;17.70;99.90;;;;;;2071973;28;20033;-67
2021/08/15 01:13:43;;;;;;;24.10;19.20;;;17.70;99.90;;;;;;2072183;28;20030;-67
2021/08/15 01:14:45;;;;;;;26.23;19.23;;;17.70;99.90;;;;;;2072241;28;20030;-67
2021/08/15 01:15:46;;;;;;;20.50;18.15;;;17.70;99.90;;;;;;2072039;28;20497;-68
2021/08/15 01:16:46;;;;;;;21.08;17.33;;;17.70;99.90;;;;;;2072731;28;20366;-68
2021/08/15 01:17:47;;;;;;;21.15;17.48;;;17.70;99.90;;;;;;2072515;28;20107;-67
2021/08/15 01:18:47;;;;;;;31.67;19.00;;;17.70;99.90;;;;;;2072153;28;20034;-67
2021/08/15 01:19:53;;;;;;;21.33;17.15;;;17.70;99.90;;;;;;2072187;28;20112;-67
2021/08/15 01:21:13;;;;;;;21.92;16.02;;;17.70;99.90;;;;;;2072396;28;20113;-67
2021/08/15 01:22:13;;;;;;;19.90;16.98;;;17.70;99.90;;;;;;2072144;28;20018;-67
2021/08/15 01:23:14;;;;;;;20.52;16.88;;;17.70;99.90;;;;;;2071985;28;20029;-67
2021/08/15 01:24:14;;;;;;;19.30;17.02;;;17.70;99.90;;;;;;2072288;28;20165;-67
2021/08/15 01:25:15;;;;;;;18.60;16.35;;;17.70;99.90;;;;;;2072034;28;20061;-68
2021/08/15 01:26:18;;;;;;;20.58;17.27;;;17.70;99.90;;;;;;2073400;28;20022;-67
2021/08/15 01:27:20;;;;;;;24.67;16.83;;;17.70;99.90;;;;;;2072282;28;20046;-67
2021/08/15 01:28:21;;;;;;;25.65;17.55;;;17.70;99.90;;;;;;2072559;28;20907;-67
2021/08/15 01:29:46;;;;;;;19.77;16.02;;;17.70;99.90;;;;;;2072350;28;20045;-67
2021/08/15 01:30:49;;;;;;;19.67;15.52;;;17.70;99.90;;;;;;2070661;28;20057;-67
2021/08/15 01:31:50;;;;;;;20.30;16.40;;;17.70;99.90;;;;;;2072187;28;20132;-67
2021/08/15 01:32:50;;;;;;;20.15;15.27;;;17.70;99.90;;;;;;2071329;28;20022;-67
2021/08/15 01:33:51;;;;;;;22.48;16.13;;;17.70;99.90;;;;;;2072023;28;20022;-67
2021/08/15 01:34:54;;;;;;;22.65;16.65;;;17.70;99.90;;;;;;2072131;28;20030;-67
2021/08/15 01:35:56;;;;;;;22.25;16.63;;;17.70;99.90;;;;;;2072259;28;20021;-67
2021/08/15 01:36:56;;;;;;;22.50;16.80;;;17.70;99.90;;;;;;2071851;28;20466;-68
2021/08/15 01:37:57;;;;;;;21.08;16.73;;;17.70;99.90;;;;;;2066971;28;20698;-68
2021/08/15 01:38:58;;;;;;;21.02;16.98;;;17.70;99.90;;;;;;2072302;28;20026;-68
2021/08/15 01:40:02;;;;;;;21.23;15.65;;;17.70;99.90;;;;;;2072427;28;20549;-68
2021/08/15 01:41:03;;;;;;;19.67;14.88;;;17.70;99.90;;;;;;2071875;28;20025;-67
2021/08/15 01:42:04;;;;;;;22.00;15.90;;;17.70;99.90;;;;;;2074681;28;20116;-67
2021/08/15 01:43:04;;;;;;;17.45;15.02;;;17.70;99.90;;;;;;2075433;28;20113;-68
2021/08/15 01:44:05;;;;;;;22.70;16.45;;;17.70;99.90;;;;;;2071734;28;20018;-67
2021/08/15 01:45:08;;;;;;;20.55;15.68;;;17.70;99.90;;;;;;2071888;28;20026;-67
2021/08/15 01:46:08;;;;;;;22.10;16.67;;;17.70;99.90;;;;;;2072030;28;20021;-67
2021/08/15 01:47:09;;;;;;;20.25;15.85;;;17.70;99.90;;;;;;2072389;28;20108;-67
2021/08/15 01:48:09;;;;;;;19.42;14.93;;;17.70;99.90;;;;;;2072331;28;20454;-67
2021/08/15 01:49:10;;;;;;;18.08;15.68;;;17.70;99.90;;;;;;2072144;28;20026;-67
2021/08/15 01:50:11;;;;;;;23.25;16.55;;;17.70;99.90;;;;;;2072095;28;20462;-68
2021/08/15 01:51:13;;;;;;;19.45;15.90;;;17.70;99.90;;;;;;2072136;28;20389;-67
2021/08/15 01:52:13;;;;;;;19.58;15.45;;;17.70;99.90;;;;;;2071998;28;20162;-68
2021/08/15 01:53:17;;;;;;;17.65;15.52;;;17.70;99.90;;;;;;2071690;28;20033;-68
2021/08/15 01:54:17;;;;;;;20.70;15.82;;;17.70;99.90;;;;;;2072188;28;20119;-67
2021/08/15 01:55:18;;;;;;;22.85;16.23;;;17.70;99.90;;;;;;2071930;28;20025;-67
2021/08/15 01:56:20;;;;;;;17.88;15.90;;;17.70;99.90;;;;;;2074785;28;20362;-67
2021/08/15 01:57:20;;;;;;;20.38;16.63;;;17.70;99.90;;;;;;2071851;28;20029;-67
2021/08/15 01:58:21;;;;;;;18.00;15.55;;;17.70;99.90;;;;;;2071813;28;20026;-67
2021/08/15 01:59:26;;;;;;;19.63;15.23;;;17.70;99.90;;;;;;2072094;28;20026;-67
2021/08/15 02:00:27;;;;;;;18.80;15.15;;;17.70;99.90;;;;;;2072219;28;20045;-67
2021/08/15 02:01:27;;;;;;;18.05;15.63;;;17.70;99.90;;;;;;2072796;28;20040;-67
2021/08/15 02:02:28;;;;;;;18.92;15.50;;;17.70;99.90;;;;;;2073424;28;20030;-67
2021/08/15 02:03:29;;;;;;;16.42;13.95;;;17.70;99.90;;;;;;2072948;28;20058;-68
2021/08/15 02:04:29;;;;;;;19.70;15.90;;;17.70;99.90;;;;;;2073007;28;20014;-67
2021/08/15 02:05:30;;;;;;;20.90;15.90;;;17.70;99.90;;;;;;2073299;28;20026;-67
2021/08/15 02:06:31;;;;;;;21.48;16.45;;;17.70;99.90;;;;;;2073341;28;20025;-67
2021/08/15 02:07:32;;;;;;;20.73;15.15;;;17.60;99.90;;;;;;2073151;28;20062;-67
2021/08/15 02:08:33;;;;;;;19.55;14.15;;;17.60;99.90;;;;;;2073533;28;20175;-67
2021/08/15 02:09:34;;;;;;;19.73;15.48;;;17.60;99.90;;;;;;2076228;28;20022;-67
2021/08/15 02:10:36;;;;;;;19.50;15.52;;;17.60;99.90;;;;;;2075155;28;20033;-67
2021/08/15 02:11:36;;;;;;;23.48;16.00;;;17.60;99.90;;;;;;2072894;28;20075;-67
2021/08/15 02:12:37;;;;;;;20.80;14.70;;;17.60;99.90;;;;;;2073120;28;20088;-67
2021/08/15 02:13:38;;;;;;;21.65;16.70;;;17.60;99.90;;;;;;2073372;28;20062;-67
2021/08/15 02:14:38;;;;;;;23.25;16.85;;;17.60;99.90;;;;;;2075076;28;20072;-67
2021/08/15 02:15:39;;;;;;;19.02;14.38;;;17.60;99.90;;;;;;2080010;28;20029;-67
2021/08/15 02:16:39;;;;;;;23.45;16.50;;;17.60;99.90;;;;;;2068012;28;20398;-67
2021/08/15 02:17:40;;;;;;;20.02;15.02;;;17.60;99.90;;;;;;2073423;28;20393;-67
2021/08/15 02:18:41;;;;;;;22.02;15.27;;;17.60;99.90;;;;;;2073380;28;20069;-67
2021/08/15 02:19:41;;;;;;;18.70;15.52;;;17.60;99.90;;;;;;2073624;28;20030;-67
2021/08/15 02:20:42;;;;;;;15.93;14.15;;;17.60;99.90;;;;;;2073086;28;20502;-68
2021/08/15 02:21:42;;;;;;;23.40;16.98;;;17.60;99.90;;;;;;2073012;28;20034;-67
2021/08/15 02:22:44;;;;;;;18.70;16.00;;;17.60;99.90;;;;;;2072841;28;20030;-68
2021/08/15 02:23:44;;;;;;;21.48;16.67;;;17.60;99.90;;;;;;2073261;28;20026;-68
2021/08/15 02:24:45;;;;;;;21.27;15.75;;;17.50;99.90;;;;;;2073008;28;20105;-68
2021/08/15 02:25:46;;;;;;;21.50;16.48;;;17.60;99.90;;;;;;2072897;28;20390;-68
2021/08/15 02:26:46;;;;;;;20.17;15.07;;;17.60;99.90;;;;;;2073112;28;20092;-67
2021/08/15 02:27:48;;;;;;;21.88;16.40;;;17.60;99.90;;;;;;2073338;28;20540;-67
2021/08/15 02:28:48;;;;;;;21.52;16.05;;;17.50;99.90;;;;;;2073437;28;20097;-67
2021/08/15 02:29:49;;;;;;;19.70;15.32;;;17.60;99.90;;;;;;2081291;28;20041;-67
2021/08/15 02:30:49;;;;;;;23.55;15.43;;;17.60;99.90;;;;;;2072921;28;20018;-68
2021/08/15 02:31:50;;;;;;;19.98;15.48;;;17.50;99.90;;;;;;2073096;28;20029;-68
2021/08/15 02:32:52;;;;;;;23.33;15.75;;;17.60;99.90;;;;;;2072668;28;20034;-68
2021/08/15 02:33:52;;;;;;;17.48;15.57;;;17.50;99.90;;;;;;2073211;28;20080;-68
2021/08/15 02:34:53;;;;;;;17.98;14.25;;;17.50;99.90;;;;;;2073059;28;20034;-68
2021/08/15 02:35:53;;;;;;;20.13;16.30;;;17.50;99.90;;;;;;2073144;28;20398;-67
2021/08/15 02:36:54;;;;;;;20.35;16.20;;;17.50;99.90;;;;;;2072949;28;20022;-67
2021/08/15 02:37:55;;;;;;;21.95;16.48;;;17.50;99.90;;;;;;2073330;28;20026;-67
2021/08/15 02:38:55;;;;;;;19.98;14.82;;;17.50;99.90;;;;;;2072802;28;20469;-67
2021/08/15 02:39:59;;;;;;;19.08;14.30;;;17.50;99.90;;;;;;2073183;28;20390;-67
2021/08/15 02:40:59;;;;;;;20.23;15.73;;;17.50;99.90;;;;;;2075692;28;20108;-67
2021/08/15 02:42:00;;;;;;;22.50;16.42;;;17.50;99.90;;;;;;2077738;28;20026;-67
2021/08/15 02:43:00;;;;;;;18.65;15.32;;;17.50;99.90;;;;;;2072627;28;20029;-67
2021/08/15 02:44:01;;;;;;;19.42;14.95;;;17.50;99.90;;;;;;2073446;28;20514;-67
2021/08/15 02:45:03;;;;;;;18.73;15.57;;;17.50;99.90;;;;;;2072792;28;20489;-67
2021/08/15 02:46:03;;;;;;;16.08;13.70;;;17.50;99.90;;;;;;2073124;28;20033;-67
2021/08/15 02:47:04;;;;;;;23.63;16.02;;;17.50;99.90;;;;;;2072983;28;20037;-67
2021/08/15 02:48:05;;;;;;;20.02;15.68;;;17.50;99.90;;;;;;2073368;28;20113;-67
2021/08/15 02:49:05;;;;;;;19.95;16.02;;;17.50;99.90;;;;;;2073148;28;20537;-68
2021/08/15 02:50:07;;;;;;;19.63;15.82;;;17.50;99.90;;;;;;2073019;28;20026;-68
2021/08/15 02:51:08;;;;;;;19.15;15.45;;;17.50;99.90;;;;;;2073089;28;20032;-68
2021/08/15 02:52:08;;;;;;;22.63;17.05;;;17.50;99.90;;;;;;2071686;28;20029;-68
2021/08/15 02:53:09;;;;;;;21.23;16.52;;;17.50;99.90;;;;;;2072525;28;20026;-68
2021/08/15 02:54:09;;;;;;;19.60;15.40;;;17.50;99.90;;;;;;2073382;28;20513;-68
2021/08/15 02:55:11;;;;;;;25.05;16.90;;;17.50;99.90;;;;;;2072877;28;20041;-68
2021/08/15 02:56:11;;;;;;;21.15;15.35;;;17.50;99.90;;;;;;2072851;28;20022;-67
2021/08/15 02:57:12;;;;;;;20.80;16.30;;;17.50;99.90;;;;;;2065057;28;20029;-68
2021/08/15 02:58:12;;;;;;;22.00;16.30;;;17.50;99.90;;;;;;2068071;28;20034;-68
2021/08/15 02:59:13;;;;;;;20.85;17.77;;;17.50;99.90;;;;;;2073167;28;20021;-68
2021/08/15 03:00:14;;;;;;;22.95;17.30;;;17.50;99.90;;;;;;2072858;28;20030;-68
2021/08/15 03:01:15;;;;;;;18.17;16.20;;;17.40;99.90;;;;;;2073014;28;20103;-68
2021/08/15 03:02:18;;;;;;;18.17;15.88;;;17.40;99.90;;;;;;2071372;28;20083;-70
2021/08/15 03:03:18;;;;;;;24.13;17.02;;;17.40;99.90;;;;;;2071777;28;20041;-68
2021/08/15 03:04:19;;;;;;;20.13;16.38;;;17.40;99.90;;;;;;2071740;28;20422;-68
2021/08/15 03:05:20;;;;;;;24.13;17.58;;;17.40;99.90;;;;;;2071297;28;20049;-68
2021/08/15 03:06:20;;;;;;;23.58;14.82;;;17.40;99.90;;;;;;2071073;28;20026;-68
2021/08/15 03:07:21;;;;;;;20.98;16.33;;;17.40;99.90;;;;;;2067440;28;20402;-68
2021/08/15 03:08:22;;;;;;;17.35;15.32;;;17.40;99.90;;;;;;2075854;28;20144;-68
2021/08/15 03:09:22;;;;;;;21.90;16.90;;;17.40;99.90;;;;;;2078445;28;20029;-68
2021/08/15 03:10:23;;;;;;;22.33;16.25;;;17.40;99.90;;;;;;2071258;28;20034;-68
2021/08/15 03:11:24;;;;;;;19.15;14.68;;;17.40;99.90;;;;;;2070919;28;20839;-68
2021/08/15 03:12:24;;;;;;;19.98;15.23;;;17.40;99.90;;;;;;2071474;28;20033;-68
2021/08/15 03:13:25;;;;;;;25.00;16.00;;;17.40;99.90;;;;;;2071343;28;20026;-68
2021/08/15 03:14:25;;;;;;;24.20;18.52;;;17.40;99.90;;;;;;2071689;28;20029;-68
2021/08/15 03:15:26;;;;;;;21.10;16.55;;;17.40;99.90;;;;;;2071705;28;20026;-68
2021/08/15 03:16:27;;;;;;;21.83;17.15;;;17.40;99.90;;;;;;2071148;28;20030;-68
2021/08/15 03:17:27;;;;;;;23.95;16.95;;;17.40;99.90;;;;;;2071766;28;20405;-68
2021/08/15 03:18:28;;;;;;;25.30;17.30;;;17.40;99.90;;;;;;2071843;28;20390;-68
2021/08/15 03:19:28;;;;;;;18.83;15.68;;;17.40;99.90;;;;;;2071673;28;20033;-68
2021/08/15 03:20:29;;;;;;;21.67;17.08;;;17.40;99.90;;;;;;2071309;28;20189;-68
2021/08/15 03:21:30;;;;;;;24.02;16.50;;;17.40;99.90;;;;;;2071514;28;20029;-68
2021/08/15 03:22:30;;;;;;;21.05;15.45;;;17.40;99.90;;;;;;2073496;28;20022;-68
2021/08/15 03:23:31;;;;;;;24.02;17.77;;;17.40;99.90;;;;;;2071393;28;20029;-68
2021/08/15 03:24:32;;;;;;;18.85;16.58;;;17.40;99.90;;;;;;2071686;28;20018;-68
2021/08/15 03:25:34;;;;;;;20.27;17.05;;;17.30;99.90;;;;;;2071234;28;20100;-68
2021/08/15 03:26:41;;;;;;;20.10;15.18;;;17.40;99.90;;;;;;2071576;28;20485;-68
2021/08/15 03:27:41;;;;;;;20.30;16.48;;;17.40;99.90;;;;;;2071408;28;20030;-68
2021/08/15 03:28:43;;;;;;;23.88;17.02;;;17.40;99.90;;;;;;2071626;28;20049;-68
2021/08/15 03:29:43;;;;;;;19.70;17.13;;;17.40;99.90;;;;;;2072008;28;20034;-68
2021/08/15 03:30:44;;;;;;;27.10;18.42;;;17.30;99.90;;;;;;2070709;28;20112;-68
2021/08/15 03:31:45;;;;;;;23.35;16.95;;;17.40;99.90;;;;;;2071224;28;20034;-68
2021/08/15 03:32:46;;;;;;;25.67;17.70;;;17.30;99.90;;;;;;2071384;28;20026;-68
2021/08/15 03:33:46;;;;;;;20.90;16.20;;;17.30;99.90;;;;;;2071366;28;20042;-68
2021/08/15 03:34:47;;;;;;;23.70;16.98;;;17.30;99.90;;;;;;2071700;28;20037;-68
2021/08/15 03:35:47;;;;;;;18.60;15.95;;;17.30;99.90;;;;;;2071897;28;20184;-68
2021/08/15 03:36:49;;;;;;;21.60;17.20;;;17.30;99.90;;;;;;2071550;28;20029;-68
2021/08/15 03:37:50;;;;;;;21.63;17.25;;;17.30;99.90;;;;;;2071117;28;20060;-68
2021/08/15 03:38:50;;;;;;;18.38;15.75;;;17.30;99.90;;;;;;2071582;28;20045;-68
2021/08/15 03:39:53;;;;;;;18.75;15.15;;;17.30;99.90;;;;;;2071047;28;20029;-68
2021/08/15 03:40:53;;;;;;;22.02;17.23;;;17.30;99.90;;;;;;2071414;28;20134;-68
2021/08/15 03:41:58;;;;;;;20.73;18.55;;;17.30;99.90;;;;;;2073264;28;20037;-68
2021/08/15 03:42:58;;;;;;;20.52;16.65;;;17.30;99.90;;;;;;2071392;28;20030;-68
2021/08/15 03:43:59;;;;;;;21.52;17.85;;;17.30;99.90;;;;;;2071277;28;20026;-68
2021/08/15 03:44:59;;;;;;;21.02;15.90;;;17.30;99.90;;;;;;2071899;28;20025;-68
2021/08/15 03:46:00;;;;;;;21.00;15.73;;;17.30;99.90;;;;;;2071489;28;20032;-68
2021/08/15 03:47:01;;;;;;;20.85;15.77;;;17.30;99.90;;;;;;2071570;28;20090;-68
2021/08/15 03:48:02;;;;;;;24.63;17.17;;;17.20;99.90;;;;;;2071542;28;20084;-68
2021/08/15 03:49:03;;;;;;;22.67;18.45;;;17.20;99.90;;;;;;2071349;28;20026;-68
2021/08/15 03:50:06;;;;;;;20.02;16.67;;;17.30;99.90;;;;;;2075784;28;20449;-68
2021/08/15 03:51:07;;;;;;;21.35;17.92;;;17.20;99.90;;;;;;2071489;28;20030;-68
2021/08/15 03:52:07;;;;;;;21.23;17.33;;;17.20;99.90;;;;;;2071172;28;20053;-68
2021/08/15 03:53:08;;;;;;;21.33;17.05;;;17.20;99.90;;;;;;2071425;28;20025;-68
2021/08/15 03:54:08;;;;;;;19.00;16.55;;;17.20;99.90;;;;;;2071490;28;20093;-68
2021/08/15 03:55:11;;;;;;;17.13;15.30;;;17.20;99.90;;;;;;2070999;28;21475;-68
2021/08/15 03:56:12;;;;;;;20.33;15.85;;;17.20;99.90;;;;;;2066214;28;20029;-68
2021/08/15 03:57:12;;;;;;;24.75;18.73;;;17.20;99.90;;;;;;2071529;28;20029;-68
2021/08/15 03:58:13;;;;;;;22.50;17.50;;;17.20;99.90;;;;;;2071382;28;20024;-68
2021/08/15 03:59:14;;;;;;;25.90;18.90;;;17.20;99.90;;;;;;2071844;28;20025;-68
2021/08/15 04:00:15;;;;;;;25.95;18.23;;;17.20;99.90;;;;;;2071435;28;20018;-68
2021/08/15 04:01:17;;;;;;;21.75;16.58;;;17.20;99.90;;;;;;2071777;28;20113;-68
2021/08/15 04:02:17;;;;;;;23.20;17.08;;;17.20;99.90;;;;;;2071203;28;20029;-68
2021/08/15 04:03:18;;;;;;;21.40;18.02;;;17.10;99.90;;;;;;2071402;28;20068;-68
2021/08/15 04:04:18;;;;;;;20.52;18.33;;;17.20;99.90;;;;;;2071039;28;20022;-68
2021/08/15 04:05:19;;;;;;;22.30;16.48;;;17.20;99.90;;;;;;2071398;28;20463;-68
2021/08/15 04:06:23;;;;;;;21.40;18.00;;;17.10;99.90;;;;;;2071164;28;20034;-68
2021/08/15 04:07:23;;;;;;;25.17;17.33;;;17.10;99.90;;;;;;2071586;28;20026;-68
2021/08/15 04:08:26;;;;;;;20.77;17.73;;;17.10;99.90;;;;;;2071219;28;20030;-68
2021/08/15 04:09:26;;;;;;;20.38;16.98;;;17.10;99.90;;;;;;2071429;28;20026;-68
2021/08/15 04:10:27;;;;;;;22.98;17.38;;;17.10;99.90;;;;;;2071238;28;20188;-68
2021/08/15 04:11:28;;;;;;;23.05;17.73;;;17.10;99.90;;;;;;2071490;28;20034;-68
2021/08/15 04:12:30;;;;;;;22.77;16.35;;;17.10;99.90;;;;;;2071315;28;20033;-68
2021/08/15 04:13:30;;;;;;;19.85;17.10;;;17.10;99.90;;;;;;2071077;28;20038;-68
2021/08/15 04:14:31;;;;;;;23.98;17.63;;;17.10;99.90;;;;;;2071522;28;20041;-68
2021/08/15 04:15:32;;;;;;;22.25;18.42;;;17.10;99.90;;;;;;2077189;28;20123;-68
2021/08/15 04:16:32;;;;;;;22.05;18.80;;;17.10;99.90;;;;;;2071997;28;20080;-68
2021/08/15 04:17:33;;;;;;;21.77;18.95;;;17.10;99.90;;;;;;2071505;28;20701;-68
2021/08/15 04:18:33;;;;;;;28.33;18.63;;;17.10;99.90;;;;;;2071453;28;20101;-68
2021/08/15 04:19:34;;;;;;;23.27;18.48;;;17.10;99.90;;;;;;2071122;28;20054;-68
2021/08/15 04:20:35;;;;;;;19.58;17.25;;;17.10;99.90;;;;;;2071544;28;20029;-68
2021/08/15 04:21:35;;;;;;;20.80;16.83;;;17.10;99.90;;;;;;2072309;28;20065;-68
2021/08/15 04:22:36;;;;;;;22.73;18.30;;;17.10;99.90;;;;;;2072587;28;20026;-68
2021/08/15 04:23:37;;;;;;;21.73;17.35;;;17.10;99.90;;;;;;2072737;28;20018;-68
2021/08/15 04:24:37;;;;;;;23.25;17.40;;;17.10;99.90;;;;;;2073043;28;20037;-68
2021/08/15 04:25:38;;;;;;;21.02;16.42;;;17.10;99.90;;;;;;2072539;28;20076;-68
2021/08/15 04:26:39;;;;;;;18.00;14.93;;;17.00;99.90;;;;;;2073156;28;20022;-68
2021/08/15 04:27:39;;;;;;;23.15;17.25;;;17.00;99.90;;;;;;2072024;28;20035;-68
2021/08/15 04:28:40;;;;;;;19.73;15.75;;;17.10;99.90;;;;;;2072330;28;20025;-68
2021/08/15 04:29:40;;;;;;;21.20;16.13;;;17.00;99.90;;;;;;2073247;28;20026;-68
2021/08/15 04:30:41;;;;;;;19.13;15.93;;;17.00;99.90;;;;;;2072957;28;20030;-68
2021/08/15 04:31:42;;;;;;;17.25;15.05;;;17.00;99.90;;;;;;2072875;28;20478;-68
2021/08/15 04:32:42;;;;;;;24.95;17.45;;;17.00;99.90;;;;;;2072425;28;20584;-68
2021/08/15 04:33:43;;;;;;;20.98;16.20;;;17.10;99.90;;;;;;2072900;28;20366;-68
2021/08/15 04:34:43;;;;;;;22.67;17.50;;;17.00;99.90;;;;;;2072867;28;20083;-68
2021/08/15 04:35:44;;;;;;;20.33;16.95;;;17.00;99.90;;;;;;2072623;28;20474;-68
2021/08/15 04:36:45;;;;;;;18.92;16.90;;;17.00;99.90;;;;;;2073111;28;20038;-68
2021/08/15 04:37:46;;;;;;;22.55;17.70;;;17.00;99.90;;;;;;2072463;28;20029;-68
2021/08/15 04:38:46;;;;;;;23.30;17.77;;;17.00;99.90;;;;;;2073064;28;20125;-68
2021/08/15 04:39:47;;;;;;;21.63;18.50;;;17.00;99.90;;;;;;2072421;28;20466;-68
2021/08/15 04:40:50;;;;;;;23.25;17.63;;;17.00;99.90;;;;;;2072664;28;20080;-68
2021/08/15 04:41:50;;;;;;;25.30;19.60;;;17.00;99.90;;;;;;2072370;28;20105;-68
2021/08/15 04:42:51;;;;;;;20.27;16.90;;;17.00;99.90;;;;;;2076752;28;20037;-68
2021/08/15 04:43:52;;;;;;;21.10;16.85;;;17.00;99.90;;;;;;2075342;28;20030;-68
2021/08/15 04:44:52;;;;;;;23.13;17.23;;;17.00;99.90;;;;;;2073166;28;20636;-68
2021/08/15 04:45:53;;;;;;;23.42;18.83;;;17.00;99.90;;;;;;2072756;28;20034;-68
2021/08/15 04:46:53;;;;;;;24.65;18.08;;;17.00;99.90;;;;;;2072962;28;20033;-68
2021/08/15 04:47:54;;;;;;;21.30;17.60;;;17.00;99.90;;;;;;2072721;28;20026;-68
2021/08/15 04:48:54;;;;;;;20.70;18.35;;;17.00;99.90;;;;;;2073148;28;20113;-68
2021/08/15 04:49:55;;;;;;;22.55;17.27;;;17.00;99.90;;;;;;2072157;28;20030;-68
2021/08/15 04:50:56;;;;;;;17.58;15.52;;;17.00;99.90;;;;;;2072618;28;20034;-68
2021/08/15 04:51:56;;;;;;;20.85;18.27;;;17.00;99.90;;;;;;2072322;28;20105;-68
2021/08/15 04:52:57;;;;;;;26.58;19.00;;;17.00;99.90;;;;;;2072619;28;20030;-68
2021/08/15 04:53:58;;;;;;;19.40;16.83;;;17.00;99.90;;;;;;2072460;28;20029;-68
2021/08/15 04:54:58;;;;;;;22.10;18.05;;;17.00;99.90;;;;;;2072754;28;20107;-68
2021/08/15 04:55:59;;;;;;;20.20;17.45;;;17.00;99.90;;;;;;2072936;28;20034;-68
2021/08/15 04:57:00;;;;;;;23.85;18.77;;;17.10;99.90;;;;;;2073013;28;20022;-68
2021/08/15 04:58:00;;;;;;;21.42;16.65;;;17.10;99.90;;;;;;2072673;28;20025;-68
2021/08/15 04:59:01;;;;;;;20.73;18.13;;;17.10;99.90;;;;;;2072944;28;20052;-68
2021/08/15 05:00:02;;;;;;;23.08;18.77;;;17.10;99.90;;;;;;2072681;28;20084;-68
2021/08/15 05:01:03;;;;;;;22.13;18.33;;;17.10;99.90;;;;;;2072430;28;20504;-68
2021/08/15 05:02:04;;;;;;;23.00;18.58;;;17.10;99.90;;;;;;2072575;28;20037;-68
2021/08/15 05:03:06;;;;;;;25.02;18.85;;;17.10;99.90;;;;;;2071871;28;20022;-68
2021/08/15 05:04:07;;;;;;;24.15;19.05;;;17.10;99.90;;;;;;2072882;28;20030;-68
2021/08/15 05:05:08;;;;;;;23.73;19.35;;;17.10;99.90;;;;;;2072126;28;20026;-68
2021/08/15 05:06:09;;;;;;;23.65;18.83;;;17.10;99.90;;;;;;2072569;28;20370;-68
2021/08/15 05:07:09;;;;;;;20.45;17.95;;;17.10;99.90;;;;;;2072826;28;20034;-68
2021/08/15 05:08:10;;;;;;;19.20;16.85;;;17.10;99.90;;;;;;2072464;28;20030;-68
2021/08/15 05:09:11;;;;;;;25.25;18.40;;;17.20;99.90;;;;;;2072674;28;20029;-68
2021/08/15 05:10:12;;;;;;;22.60;18.88;;;17.20;99.90;;;;;;2075993;28;20105;-68